createdAt,value
2019-05-20T00:00:27.482Z,99.99
2019-05-20T00:01:36.477Z,99.99
2019-05-20T00:02:28.500Z,99.99
2019-05-20T00:03:27.482Z,99.99
2019-05-20T00:04:27.454Z,99.99
2019-05-20T00:05:44.020Z,99.99
2019-05-20T00:06:27.413Z,99.99
2019-05-20T00:07:28.430Z,99.99
2019-05-20T00:08:27.391Z,99.99
2019-05-20T00:09:27.451Z,99.99
2019-05-20T00:10:27.370Z,99.99
2019-05-20T00:11:27.432Z,99.99
2019-05-20T00:12:27.350Z,99.99
2019-05-20T00:13:27.447Z,99.99
2019-05-20T00:14:27.346Z,99.99
2019-05-20T00:15:27.755Z,99.99
2019-05-20T00:16:27.321Z,99.99
2019-05-20T00:17:27.382Z,99.99
2019-05-20T00:18:27.281Z,99.99
2019-05-20T00:19:27.319Z,99.99
2019-05-20T00:20:27.263Z,99.99
2019-05-20T00:21:27.300Z,99.99
2019-05-20T00:22:27.234Z,99.99
2019-05-20T00:23:27.312Z,99.99
2019-05-20T00:24:27.252Z,99.99
2019-05-20T00:25:27.225Z,99.99
2019-05-20T00:26:27.197Z,99.99
2019-05-20T00:27:27.236Z,99.99
2019-05-20T00:28:27.178Z,99.99
2019-05-20T00:29:27.253Z,99.99
2019-05-20T00:30:27.171Z,99.99
2019-05-20T00:31:27.191Z,99.99
2019-05-20T00:32:40.291Z,99.99
2019-05-20T00:33:28.111Z,99.99
2019-05-20T00:34:35.175Z,99.99
2019-05-20T00:35:28.111Z,99.99
2019-05-20T00:36:27.229Z,99.99
2019-05-20T00:37:27.077Z,99.99
2019-05-20T00:38:27.108Z,99.99
2019-05-20T00:39:27.049Z,99.99
2019-05-20T00:40:27.158Z,99.99
2019-05-20T00:41:27.028Z,99.99
2019-05-20T00:42:27.034Z,99.99
2019-05-20T00:43:27.009Z,99.99
2019-05-20T00:44:27.001Z,99.99
2019-05-20T00:45:27.007Z,99.99
2019-05-20T00:47:35.800Z,99.99
2019-05-20T00:48:35.719Z,99.99
2019-05-20T00:49:35.789Z,99.99
2019-05-20T00:50:35.710Z,99.99
2019-05-20T00:51:35.796Z,99.99
2019-05-20T00:52:35.681Z,99.99
2019-05-20T00:53:35.716Z,99.99
2019-05-20T00:54:35.659Z,99.99
2019-05-20T00:55:35.754Z,99.99
2019-05-20T00:56:35.633Z,99.99
2019-05-20T00:57:35.642Z,99.99
2019-05-20T00:58:35.611Z,99.99
2019-05-20T00:59:35.656Z,99.99
2019-05-20T01:00:35.608Z,99.99
2019-05-20T01:01:35.671Z,99.99
2019-05-20T01:02:35.564Z,99.99
2019-05-20T01:03:35.571Z,99.99
2019-05-20T01:04:35.571Z,99.99
2019-05-20T01:05:35.645Z,99.99
2019-05-20T01:06:35.530Z,99.99
2019-05-20T01:07:35.602Z,99.99
2019-05-20T01:08:35.517Z,99.99
2019-05-20T01:09:35.511Z,99.99
2019-05-20T01:10:35.507Z,99.99
2019-05-20T01:11:37.584Z,99.99
2019-05-20T01:12:35.458Z,99.99
2019-05-20T01:13:36.458Z,99.99
2019-05-20T01:14:35.437Z,99.99
2019-05-20T01:15:35.480Z,99.99
2019-05-20T01:16:35.411Z,99.99
2019-05-20T01:17:51.953Z,99.99
2019-05-20T01:18:35.392Z,99.99
2019-05-20T01:19:35.482Z,99.99
2019-05-20T01:20:35.397Z,99.99
2019-05-20T01:21:35.387Z,99.99
2019-05-20T01:22:35.352Z,99.99
2019-05-20T01:23:35.402Z,99.99
2019-05-20T01:24:35.326Z,99.99
2019-05-20T01:25:35.347Z,99.99
2019-05-20T01:26:35.299Z,99.99
2019-05-20T01:27:35.329Z,99.99
2019-05-20T01:28:35.286Z,99.99
2019-05-20T01:29:35.341Z,99.99
2019-05-20T01:30:35.271Z,99.99
2019-05-20T01:31:35.353Z,99.99
2019-05-20T01:32:35.236Z,99.99
2019-05-20T01:33:35.268Z,99.99
2019-05-20T01:34:35.211Z,99.99
2019-05-20T01:35:35.317Z,99.99
2019-05-20T01:36:35.192Z,99.99
2019-05-20T01:37:35.191Z,99.99
2019-05-20T01:38:35.171Z,99.99
2019-05-20T01:39:35.213Z,99.99
2019-05-20T01:40:35.223Z,99.99
2019-05-20T01:41:35.217Z,99.99
2019-05-20T01:42:35.124Z,99.99
2019-05-20T01:43:35.128Z,99.99
2019-05-20T01:44:35.109Z,99.99
2019-05-20T01:45:35.180Z,99.99
2019-05-20T01:46:35.096Z,99.99
2019-05-20T01:47:35.217Z,99.99
2019-05-20T01:48:35.065Z,99.99
2019-05-20T01:49:35.075Z,99.99
2019-05-20T01:50:35.057Z,99.99
2019-05-20T01:51:35.081Z,99.99
2019-05-20T01:52:35.024Z,99.99
2019-05-20T01:53:35.102Z,99.99
2019-05-20T01:54:34.994Z,99.99
2019-05-20T01:55:40.472Z,99.99
2019-05-20T01:56:34.985Z,99.99
2019-05-20T01:57:37.081Z,99.99
2019-05-20T01:58:34.958Z,99.99
2019-05-20T01:59:35.959Z,99.99
2019-05-20T02:00:34.939Z,99.99
2019-05-20T02:01:34.949Z,99.99
2019-05-20T02:02:34.904Z,99.99
2019-05-20T02:03:34.963Z,99.99
2019-05-20T02:04:34.896Z,99.99
2019-05-20T02:05:34.910Z,99.99
2019-05-20T02:06:34.859Z,99.99
2019-05-20T02:07:34.888Z,99.99
2019-05-20T02:08:34.841Z,99.99
2019-05-20T02:09:34.899Z,99.99
2019-05-20T02:10:34.840Z,99.99
2019-05-20T02:11:34.912Z,99.99
2019-05-20T02:12:34.795Z,99.99
2019-05-20T02:13:34.828Z,99.99
2019-05-20T02:14:34.775Z,99.99
2019-05-20T02:15:34.879Z,99.99
2019-05-20T02:16:34.752Z,99.99
2019-05-20T02:17:34.851Z,99.99
2019-05-20T02:18:34.735Z,99.99
2019-05-20T02:19:34.762Z,99.99
2019-05-20T02:20:34.709Z,99.99
2019-05-20T02:21:34.813Z,99.99
2019-05-20T02:22:34.683Z,99.99
2019-05-20T02:23:34.686Z,99.99
2019-05-20T02:24:34.668Z,99.99
2019-05-20T02:25:34.701Z,99.99
2019-05-20T02:26:34.655Z,99.99
2019-05-20T02:27:34.713Z,99.99
2019-05-20T02:28:34.619Z,99.99
2019-05-20T02:29:34.626Z,99.99
2019-05-20T02:30:34.610Z,99.99
2019-05-20T02:31:34.680Z,99.99
2019-05-20T02:32:34.580Z,99.99
2019-05-20T02:33:50.009Z,99.99
2019-05-20T02:34:35.552Z,99.99
2019-05-20T02:35:34.572Z,99.99
2019-05-20T02:36:34.550Z,99.99
2019-05-20T02:37:34.579Z,99.99
2019-05-20T02:38:34.507Z,99.99
2019-05-20T02:39:34.593Z,99.99
2019-05-20T02:40:34.488Z,99.99
2019-05-20T02:41:34.500Z,99.99
2019-05-20T02:42:34.465Z,99.99
2019-05-20T02:44:10.466Z,99.99
2019-05-20T02:44:34.442Z,99.99
2019-05-20T02:45:34.432Z,99.99
2019-05-20T02:46:34.473Z,99.99
2019-05-20T02:47:34.421Z,99.99
2019-05-20T02:48:34.453Z,99.99
2019-05-20T02:49:34.392Z,99.99
2019-05-20T02:50:34.463Z,99.99
2019-05-20T02:51:34.385Z,99.99
2019-05-20T02:52:34.374Z,99.99
2019-05-20T02:53:34.348Z,99.99
2019-05-20T02:54:34.393Z,99.99
2019-05-20T02:55:34.324Z,99.99
2019-05-20T02:56:34.434Z,99.99
2019-05-20T02:57:34.298Z,99.99
2019-05-20T02:58:34.321Z,99.99
2019-05-20T02:59:34.277Z,99.99
2019-05-20T03:00:34.328Z,99.99
2019-05-20T03:01:34.290Z,99.99
2019-05-20T03:02:34.341Z,99.99
2019-05-20T03:03:34.231Z,99.99
2019-05-20T03:04:34.252Z,99.99
2019-05-20T03:05:34.208Z,99.99
2019-05-20T03:06:34.298Z,99.99
2019-05-20T03:07:34.186Z,99.99
2019-05-20T03:08:34.278Z,99.99
2019-05-20T03:09:34.170Z,99.99
2019-05-20T03:10:34.196Z,99.99
2019-05-20T03:11:34.165Z,99.99
2019-05-20T03:12:34.205Z,99.99
2019-05-20T03:13:34.122Z,99.99
2019-05-20T03:14:34.218Z,99.99
2019-05-20T03:15:34.103Z,99.99
2019-05-20T03:16:34.160Z,99.99
2019-05-20T03:17:34.080Z,99.99
2019-05-20T03:18:34.145Z,99.99
2019-05-20T03:19:34.053Z,99.99
2019-05-20T03:20:34.161Z,99.99
2019-05-20T03:21:34.061Z,99.99
2019-05-20T03:22:34.072Z,99.99
2019-05-20T03:23:34.010Z,99.99
2019-05-20T03:24:34.089Z,99.99
2019-05-20T03:25:33.992Z,99.99
2019-05-20T03:26:36.074Z,99.99
2019-05-20T03:27:33.971Z,99.99
2019-05-20T03:28:48.960Z,99.99
2019-05-20T03:29:33.956Z,99.99
2019-05-20T03:30:35.987Z,99.99
2019-05-20T03:31:33.937Z,99.99
2019-05-20T03:32:34.029Z,99.99
2019-05-20T03:33:33.913Z,99.99
2019-05-20T03:34:58.491Z,99.99
2019-05-20T03:35:34.986Z,99.99
2019-05-20T03:36:33.992Z,99.99
2019-05-20T03:37:33.857Z,99.99
2019-05-20T03:38:33.879Z,99.99
2019-05-20T03:39:33.848Z,99.99
2019-05-20T03:40:33.884Z,99.99
2019-05-20T03:41:33.856Z,99.99
2019-05-20T03:42:33.901Z,99.99
2019-05-20T03:43:33.792Z,99.99
2019-05-20T03:44:33.812Z,99.99
2019-05-20T03:45:33.773Z,99.99
2019-05-20T03:46:33.826Z,99.99
2019-05-20T03:47:33.765Z,99.99
2019-05-20T03:48:33.837Z,99.99
2019-05-20T03:49:33.730Z,99.99
2019-05-20T03:50:33.748Z,99.99
2019-05-20T03:51:33.708Z,99.99
2019-05-20T03:52:33.808Z,99.99
2019-05-20T03:53:33.684Z,99.99
2019-05-20T03:54:33.774Z,99.99
2019-05-20T03:55:33.669Z,99.99
2019-05-20T03:56:33.687Z,99.99
2019-05-20T03:57:33.668Z,99.99
2019-05-20T03:58:33.635Z,99.99
2019-05-20T03:59:33.625Z,99.99
2019-05-20T04:00:33.721Z,99.99
2019-05-20T04:01:33.600Z,99.99
2019-05-20T04:02:33.658Z,99.99
2019-05-20T04:03:33.577Z,99.99
2019-05-20T04:04:33.640Z,99.99
2019-05-20T04:05:33.554Z,99.99
2019-05-20T04:06:33.656Z,99.99
2019-05-20T04:07:33.549Z,99.99
2019-05-20T04:08:33.566Z,99.99
2019-05-20T04:09:33.513Z,99.99
2019-05-20T04:10:33.578Z,99.99
2019-05-20T04:11:33.491Z,99.99
2019-05-20T04:12:34.545Z,99.99
2019-05-20T04:13:34.922Z,99.99
2019-05-20T04:14:34.530Z,99.99
2019-05-20T04:15:33.445Z,99.99
2019-05-20T04:16:35.475Z,99.99
2019-05-20T04:17:33.451Z,99.99
2019-05-20T04:18:33.430Z,99.99
2019-05-20T04:19:33.410Z,99.99
2019-05-20T04:20:33.489Z,99.99
2019-05-20T04:21:33.387Z,99.99
2019-05-20T04:22:33.490Z,99.99
2019-05-20T04:23:33.391Z,99.99
2019-05-20T04:24:33.373Z,99.99
2019-05-20T04:25:33.340Z,99.99
2019-05-20T04:26:33.383Z,99.99
2019-05-20T04:27:33.330Z,99.99
2019-05-20T04:28:33.404Z,99.99
2019-05-20T04:29:33.296Z,99.99
2019-05-20T04:30:33.317Z,99.99
2019-05-20T04:31:33.277Z,99.99
2019-05-20T04:32:33.359Z,99.99
2019-05-20T04:33:33.264Z,99.99
2019-05-20T04:34:33.249Z,99.99
2019-05-20T04:35:33.229Z,99.99
2019-05-20T04:36:33.247Z,99.99
2019-05-20T04:37:33.223Z,99.99
2019-05-20T04:38:33.263Z,99.99
2019-05-20T04:39:33.183Z,99.99
2019-05-20T04:40:33.276Z,99.99
2019-05-20T04:41:35.629Z,99.99
2019-05-20T04:42:33.215Z,99.99
2019-05-20T04:43:33.137Z,99.99
2019-05-20T04:44:33.201Z,99.99
2019-05-20T04:45:33.114Z,99.99
2019-05-20T04:46:33.211Z,99.99
2019-05-20T04:47:33.121Z,99.99
2019-05-20T04:48:33.122Z,99.99
2019-05-20T04:49:33.073Z,99.99
2019-05-20T04:50:33.139Z,99.99
2019-05-20T04:51:33.049Z,99.99
2019-05-20T04:52:33.078Z,99.99
2019-05-20T04:53:33.046Z,99.99
2019-05-20T04:54:33.064Z,99.99
2019-05-20T04:55:33.008Z,99.99
2019-05-20T04:56:33.075Z,99.99
2019-05-20T04:57:33.011Z,99.99
2019-05-20T04:58:48.961Z,99.99
2019-05-20T04:59:32.974Z,99.99
2019-05-20T05:00:39.964Z,99.99
2019-05-20T05:01:32.942Z,99.99
2019-05-20T05:02:33.969Z,99.99
2019-05-20T05:03:32.921Z,99.99
2019-05-20T05:04:32.926Z,99.99
2019-05-20T05:05:37.503Z,99.99
2019-05-20T05:06:33.962Z,99.99
2019-05-20T05:07:32.890Z,99.99
2019-05-20T05:08:32.952Z,99.99
2019-05-20T05:09:32.856Z,99.99
2019-05-20T05:10:32.863Z,99.99
2019-05-20T05:11:32.837Z,99.99
2019-05-20T05:12:32.908Z,99.99
2019-05-20T05:13:32.809Z,99.99
2019-05-20T05:14:32.899Z,99.99
2019-05-20T05:15:32.792Z,99.99
2019-05-20T05:16:32.806Z,99.99
2019-05-20T05:17:32.787Z,99.99
2019-05-20T05:18:32.816Z,99.99
2019-05-20T05:19:32.742Z,99.99
2019-05-20T05:20:32.830Z,99.99
2019-05-20T05:21:32.730Z,99.99
2019-05-20T05:22:32.772Z,99.99
2019-05-20T05:23:32.699Z,99.99
2019-05-20T05:24:32.755Z,99.99
2019-05-20T05:25:32.676Z,99.99
2019-05-20T05:26:32.768Z,99.99
2019-05-20T05:27:32.683Z,99.99
2019-05-20T05:28:32.680Z,99.99
2019-05-20T05:29:32.632Z,99.99
2019-05-20T05:30:32.701Z,99.99
2019-05-20T05:31:32.614Z,99.99
2019-05-20T05:32:32.712Z,99.99
2019-05-20T05:33:32.602Z,99.99
2019-05-20T05:34:32.618Z,99.99
2019-05-20T05:35:32.566Z,99.99
2019-05-20T05:36:32.635Z,99.99
2019-05-20T05:37:32.545Z,99.99
2019-05-20T05:38:32.578Z,99.99
2019-05-20T05:39:32.519Z,99.99
2019-05-20T05:40:32.568Z,99.99
2019-05-20T05:41:32.495Z,99.99
2019-05-20T05:42:32.585Z,99.99
2019-05-20T05:43:32.492Z,99.99
2019-05-20T05:44:32.488Z,99.99
2019-05-20T05:45:32.463Z,99.99
2019-05-20T05:46:32.502Z,99.99
2019-05-20T05:47:32.429Z,99.99
2019-05-20T05:48:32.546Z,99.99
2019-05-20T05:49:32.411Z,99.99
2019-05-20T05:50:32.427Z,99.99
2019-05-20T05:51:32.387Z,99.99
2019-05-20T05:52:32.441Z,99.99
2019-05-20T05:53:32.379Z,99.99
2019-05-20T05:54:32.462Z,99.99
2019-05-20T05:55:32.343Z,99.99
2019-05-20T05:56:32.365Z,99.99
2019-05-20T05:57:32.325Z,99.99
2019-05-20T05:58:32.414Z,99.99
2019-05-20T05:59:32.303Z,99.99
2019-05-20T06:00:32.394Z,99.99
2019-05-20T06:01:32.281Z,99.99
2019-05-20T06:02:32.311Z,99.99
2019-05-20T06:03:32.273Z,99.84
2019-05-20T06:04:32.322Z,99.58
2019-05-20T06:05:32.233Z,99.63
2019-05-20T06:06:32.334Z,99.99
2019-05-20T06:07:32.221Z,99.99
2019-05-20T06:08:32.275Z,99.99
2019-05-20T06:09:32.195Z,99.69
2019-05-20T06:10:35.535Z,99.08
2019-05-20T06:11:32.166Z,98.07
2019-05-20T06:12:32.266Z,98.57
2019-05-20T06:13:32.163Z,98.97
2019-05-20T06:14:32.181Z,98.83
2019-05-20T06:15:32.123Z,98.73
2019-05-20T06:16:36.532Z,97.81
2019-05-20T06:17:32.105Z,97.71
2019-05-20T06:18:32.143Z,97.61
2019-05-20T06:19:32.083Z,97.81
2019-05-20T06:20:32.074Z,97.67
2019-05-20T06:21:32.058Z,97.77
2019-05-20T06:22:32.145Z,96.66
2019-05-20T06:23:32.051Z,96.96
2019-05-20T06:24:32.047Z,96.96
2019-05-20T06:25:32.019Z,96.04
2019-05-20T06:26:32.054Z,96.15
2019-05-20T06:27:31.992Z,96.10
2019-05-20T06:28:35.483Z,96.35
2019-05-20T06:29:31.972Z,96.04
2019-05-20T06:30:31.984Z,97.00
2019-05-20T06:31:31.985Z,96.35
2019-05-20T06:32:39.468Z,96.55
2019-05-20T06:33:31.946Z,96.45
2019-05-20T06:34:33.978Z,96.04
2019-05-20T06:35:31.909Z,96.25
2019-05-20T06:36:31.920Z,95.74
2019-05-20T06:37:31.915Z,95.58
2019-05-20T06:38:31.965Z,96.09
2019-05-20T06:39:31.859Z,96.45
2019-05-20T06:40:31.946Z,96.96
2019-05-20T06:41:31.839Z,96.35
2019-05-20T06:42:31.880Z,95.64
2019-05-20T06:43:31.892Z,96.35
2019-05-20T06:44:31.873Z,96.04
2019-05-20T06:45:31.797Z,95.74
2019-05-20T06:46:31.886Z,96.35
2019-05-20T06:47:31.772Z,95.54
2019-05-20T06:48:31.827Z,95.74
2019-05-20T06:49:31.750Z,96.25
2019-05-20T06:50:31.852Z,95.34
2019-05-20T06:51:31.732Z,95.34
2019-05-20T06:52:36.025Z,95.64
2019-05-20T06:53:31.711Z,95.23
2019-05-20T06:54:31.766Z,95.50
2019-05-20T06:55:31.688Z,95.54
2019-05-20T06:56:31.748Z,95.50
2019-05-20T06:57:31.664Z,95.50
2019-05-20T06:58:31.796Z,95.04
2019-05-20T06:59:31.659Z,94.48
2019-05-20T07:00:31.679Z,95.50
2019-05-20T07:01:31.624Z,94.94
2019-05-20T07:02:31.687Z,95.04
2019-05-20T07:03:31.597Z,95.14
2019-05-20T07:04:31.632Z,94.13
2019-05-20T07:05:31.578Z,93.97
2019-05-20T07:06:45.600Z,94.48
2019-05-20T07:07:32.550Z,95.54
2019-05-20T07:08:31.661Z,95.28
2019-05-20T07:09:31.545Z,95.34
2019-05-20T07:10:31.537Z,95.43
2019-05-20T07:11:31.515Z,95.50
2019-05-20T07:12:40.974Z,95.19
2019-05-20T07:13:32.513Z,95.09
2019-05-20T07:14:36.007Z,94.48
2019-05-20T07:15:31.469Z,94.23
2019-05-20T07:16:31.475Z,94.54
2019-05-20T07:17:31.753Z,93.83
2019-05-20T07:18:47.989Z,94.03
2019-05-20T07:19:31.441Z,93.62
2019-05-20T07:20:32.424Z,93.02
2019-05-20T07:21:31.401Z,92.87
2019-05-20T07:22:31.415Z,93.18
2019-05-20T07:23:31.376Z,92.67
2019-05-20T07:24:31.459Z,91.55
2019-05-20T07:25:31.374Z,91.41
2019-05-20T07:26:31.451Z,91.11
2019-05-20T07:27:31.331Z,90.80
2019-05-20T07:28:31.353Z,90.36
2019-05-20T07:29:31.336Z,90.56
2019-05-20T07:30:31.366Z,90.76
2019-05-20T07:31:31.294Z,90.40
2019-05-20T07:32:31.387Z,91.55
2019-05-20T07:33:31.267Z,91.05
2019-05-20T07:34:31.332Z,92.26
2019-05-20T07:35:31.510Z,93.12
2019-05-20T07:36:31.306Z,93.32
2019-05-20T07:37:31.238Z,93.48
2019-05-20T07:38:31.319Z,92.97
2019-05-20T07:39:31.214Z,92.26
2019-05-20T07:40:31.230Z,91.50
2019-05-20T07:41:31.178Z,92.31
2019-05-20T07:42:31.245Z,92.51
2019-05-20T07:43:31.157Z,93.07
2019-05-20T07:44:31.201Z,93.48
2019-05-20T07:45:31.148Z,92.32
2019-05-20T07:46:31.169Z,91.20
2019-05-20T07:47:31.111Z,90.80
2019-05-20T07:48:32.302Z,90.40
2019-05-20T07:49:31.106Z,89.48
2019-05-20T07:50:31.094Z,90.50
2019-05-20T07:51:31.073Z,89.79
2019-05-20T07:52:31.107Z,90.34
2019-05-20T07:53:31.067Z,90.84
2019-05-20T07:54:31.160Z,91.66
2019-05-20T07:55:31.024Z,91.19
2019-05-20T07:56:31.038Z,91.15
2019-05-20T07:57:30.999Z,91.61
2019-05-20T07:58:33.805Z,91.11
2019-05-20T07:59:30.977Z,90.45
2019-05-20T08:00:32.021Z,90.41
2019-05-20T08:01:30.958Z,90.01
2019-05-20T08:02:30.974Z,89.10
2019-05-20T08:03:30.936Z,88.85
2019-05-20T08:04:30.998Z,88.85
2019-05-20T08:05:30.926Z,88.35
2019-05-20T08:06:31.974Z,88.01
2019-05-20T08:07:50.364Z,86.49
2019-05-20T08:08:31.880Z,86.90
2019-05-20T08:09:30.917Z,86.73
2019-05-20T08:10:30.869Z,87.88
2019-05-20T08:11:30.931Z,88.70
2019-05-20T08:12:30.836Z,88.19
2019-05-20T08:13:30.842Z,88.35
2019-05-20T08:14:30.832Z,87.95
2019-05-20T08:15:30.888Z,87.64
2019-05-20T08:16:30.789Z,88.04
2019-05-20T08:17:30.870Z,88.19
2019-05-20T08:18:30.772Z,88.39
2019-05-20T08:19:30.801Z,88.35
2019-05-20T08:20:30.772Z,87.84
2019-05-20T08:21:30.800Z,88.25
2019-05-20T08:22:30.728Z,87.40
2019-05-20T08:23:30.808Z,86.85
2019-05-20T08:24:30.703Z,85.84
2019-05-20T08:25:30.751Z,85.70
2019-05-20T08:26:30.760Z,84.09
2019-05-20T08:27:30.733Z,84.55
2019-05-20T08:28:30.679Z,83.68
2019-05-20T08:29:30.747Z,84.43
2019-05-20T08:30:30.655Z,85.84
2019-05-20T08:31:30.692Z,85.84
2019-05-20T08:32:30.678Z,85.10
2019-05-20T08:33:30.672Z,84.99
2019-05-20T08:34:30.966Z,84.59
2019-05-20T08:35:30.619Z,84.69
2019-05-20T08:36:30.578Z,84.29
2019-05-20T08:37:44.388Z,83.74
2019-05-20T08:38:31.559Z,84.15
2019-05-20T08:39:30.611Z,84.35
2019-05-20T08:40:30.550Z,83.78
2019-05-20T08:41:30.627Z,84.05
2019-05-20T08:42:30.512Z,85.10
2019-05-20T08:43:45.488Z,84.25
2019-05-20T08:44:30.670Z,84.15
2019-05-20T08:45:36.017Z,84.35
2019-05-20T08:46:30.466Z,84.03
2019-05-20T08:47:31.486Z,85.78
2019-05-20T08:48:30.445Z,86.99
2019-05-20T08:49:30.628Z,86.95
2019-05-20T08:50:30.437Z,86.10
2019-05-20T08:51:30.488Z,84.85
2019-05-20T08:52:30.424Z,84.05
2019-05-20T08:53:30.503Z,84.01
2019-05-20T08:54:30.396Z,83.87
2019-05-20T08:55:30.455Z,83.46
2019-05-20T08:56:30.364Z,82.96
2019-05-20T08:57:30.435Z,81.91
2019-05-20T08:58:30.338Z,81.30
2019-05-20T08:59:30.351Z,80.60
2019-05-20T09:00:30.340Z,81.30
2019-05-20T09:01:30.352Z,81.24
2019-05-20T09:02:30.302Z,82.05
2019-05-20T09:03:30.788Z,81.21
2019-05-20T09:04:30.275Z,80.50
2019-05-20T09:05:30.309Z,81.51
2019-05-20T09:06:30.278Z,80.57
2019-05-20T09:07:30.291Z,79.96
2019-05-20T09:08:30.243Z,80.12
2019-05-20T09:09:30.363Z,79.82
2019-05-20T09:10:30.294Z,79.52
2019-05-20T09:11:30.218Z,79.58
2019-05-20T09:12:30.191Z,80.02
2019-05-20T09:13:30.236Z,78.78
2019-05-20T09:14:30.175Z,79.08
2019-05-20T09:15:30.331Z,79.99
2019-05-20T09:16:30.213Z,79.38
2019-05-20T09:17:30.155Z,79.08
2019-05-20T09:18:30.123Z,79.28
2019-05-20T09:19:30.343Z,79.18
2019-05-20T09:20:30.101Z,79.08
2019-05-20T09:21:30.112Z,78.31
2019-05-20T09:22:30.124Z,79.92
2019-05-20T09:23:30.098Z,79.18
2019-05-20T09:24:30.119Z,78.58
2019-05-20T09:25:30.114Z,78.07
2019-05-20T09:26:30.047Z,78.58
2019-05-20T09:27:30.121Z,78.27
2019-05-20T09:28:30.010Z,79.11
2019-05-20T09:29:38.171Z,78.71
2019-05-20T09:30:30.060Z,79.22
2019-05-20T09:31:31.009Z,79.08
2019-05-20T09:32:29.958Z,78.54
2019-05-20T09:33:31.115Z,77.80
2019-05-20T09:34:29.938Z,77.33
2019-05-20T09:35:30.030Z,77.43
2019-05-20T09:36:29.929Z,76.69
2019-05-20T09:37:29.986Z,76.89
2019-05-20T09:38:29.913Z,77.13
2019-05-20T09:39:29.897Z,77.59
2019-05-20T09:40:29.875Z,78.00
2019-05-20T09:41:29.945Z,76.49
2019-05-20T09:42:29.874Z,76.56
2019-05-20T09:43:29.926Z,76.21
2019-05-20T09:44:29.845Z,76.02
2019-05-20T09:45:29.840Z,76.25
2019-05-20T09:46:29.860Z,77.26
2019-05-20T09:47:29.861Z,76.42
2019-05-20T09:48:29.794Z,75.88
2019-05-20T09:49:29.878Z,74.77
2019-05-20T09:50:29.763Z,74.77
2019-05-20T09:51:29.807Z,73.44
2019-05-20T09:52:29.736Z,74.71
2019-05-20T09:53:29.791Z,72.47
2019-05-20T09:54:29.729Z,71.86
2019-05-20T09:55:29.821Z,71.93
2019-05-20T09:56:29.712Z,71.77
2019-05-20T09:57:29.717Z,72.73
2019-05-20T09:58:29.679Z,70.53
2019-05-20T09:59:42.513Z,72.19
2019-05-20T10:00:30.650Z,69.76
2019-05-20T10:01:29.759Z,69.46
2019-05-20T10:02:35.179Z,70.16
2019-05-20T10:03:30.618Z,68.73
2019-05-20T10:04:29.663Z,68.19
2019-05-20T10:05:29.598Z,67.96
2019-05-20T10:06:29.706Z,66.70
2019-05-20T10:07:29.580Z,65.40
2019-05-20T10:08:37.992Z,64.77
2019-05-20T10:09:30.553Z,64.31
2019-05-20T10:10:29.597Z,63.72
2019-05-20T10:11:29.548Z,61.17
2019-05-20T10:12:45.624Z,61.14
2019-05-20T10:13:31.876Z,58.95
2019-05-20T10:14:37.519Z,61.06
2019-05-20T10:15:29.492Z,64.57
2019-05-20T10:16:31.522Z,65.80
2019-05-20T10:17:29.466Z,65.17
2019-05-20T10:18:37.503Z,63.05
2019-05-20T10:19:30.459Z,61.27
2019-05-20T10:20:29.485Z,59.15
2019-05-20T10:21:29.451Z,59.17
2019-05-20T10:22:29.475Z,58.47
2019-05-20T10:23:29.410Z,57.32
2019-05-20T10:24:29.488Z,57.62
2019-05-20T10:25:29.470Z,57.50
2019-05-20T10:26:29.431Z,57.27
2019-05-20T10:27:29.367Z,56.57
2019-05-20T10:28:29.413Z,56.93
2019-05-20T10:29:29.342Z,56.28
2019-05-20T10:30:29.426Z,56.57
2019-05-20T10:31:29.354Z,56.95
2019-05-20T10:32:29.372Z,56.36
2019-05-20T10:33:29.313Z,58.60
2019-05-20T10:34:29.351Z,57.58
2019-05-20T10:35:29.275Z,57.55
2019-05-20T10:36:29.420Z,57.29
2019-05-20T10:37:29.277Z,54.86
2019-05-20T10:38:29.289Z,53.95
2019-05-20T10:39:29.236Z,55.11
2019-05-20T10:40:29.303Z,53.63
2019-05-20T10:41:29.756Z,54.79
2019-05-20T10:42:29.233Z,56.09
2019-05-20T10:43:29.197Z,57.60
2019-05-20T10:44:29.221Z,58.67
2019-05-20T10:45:29.187Z,56.36
2019-05-20T10:46:29.231Z,55.83
2019-05-20T10:47:29.166Z,55.74
2019-05-20T10:48:29.249Z,55.87
2019-05-20T10:49:29.137Z,56.16
2019-05-20T10:50:29.167Z,55.83
2019-05-20T10:51:29.108Z,55.24
2019-05-20T10:52:29.210Z,54.37
2019-05-20T10:53:29.088Z,54.44
2019-05-20T10:54:29.185Z,52.61
2019-05-20T10:55:29.074Z,52.19
2019-05-20T10:56:29.106Z,52.61
2019-05-20T10:57:29.058Z,52.91
2019-05-20T10:58:29.108Z,52.83
2019-05-20T10:59:29.022Z,52.12
2019-05-20T11:00:29.123Z,53.60
2019-05-20T11:01:29.009Z,52.24
2019-05-20T11:02:31.240Z,52.83
2019-05-20T11:03:28.979Z,53.67
2019-05-20T11:04:29.055Z,52.66
2019-05-20T11:05:28.965Z,51.28
2019-05-20T11:06:29.064Z,51.82
2019-05-20T11:07:28.973Z,51.89
2019-05-20T11:08:28.976Z,53.13
2019-05-20T11:09:28.917Z,52.51
2019-05-20T11:10:28.990Z,51.70
2019-05-20T11:11:28.899Z,50.98
2019-05-20T11:12:28.932Z,50.90
2019-05-20T11:13:28.889Z,53.42
2019-05-20T11:14:28.911Z,50.46
2019-05-20T11:15:28.857Z,52.48
2019-05-20T11:16:28.923Z,51.75
2019-05-20T11:17:28.858Z,50.56
2019-05-20T11:18:28.834Z,49.06
2019-05-20T11:19:28.821Z,47.63
2019-05-20T11:20:28.849Z,50.93
2019-05-20T11:21:28.795Z,52.29
2019-05-20T11:22:28.896Z,53.28
2019-05-20T11:23:28.781Z,55.21
2019-05-20T11:24:28.779Z,54.35
2019-05-20T11:25:28.763Z,52.19
2019-05-20T11:26:28.790Z,50.76
2019-05-20T11:27:28.746Z,51.87
2019-05-20T11:28:28.811Z,52.44
2019-05-20T11:29:28.749Z,52.39
2019-05-20T11:30:28.813Z,51.35
2019-05-20T11:31:28.704Z,49.55
2019-05-20T11:32:28.780Z,50.51
2019-05-20T11:33:28.676Z,49.01
2019-05-20T11:34:28.763Z,48.47
2019-05-20T11:35:28.660Z,48.17
2019-05-20T11:36:28.758Z,47.36
2019-05-20T11:37:28.658Z,47.68
2019-05-20T11:38:28.671Z,47.48
2019-05-20T11:39:33.363Z,47.70
2019-05-20T11:40:29.707Z,46.91
2019-05-20T11:41:52.309Z,47.41
2019-05-20T11:42:29.610Z,46.62
2019-05-20T11:43:28.599Z,47.41
2019-05-20T11:44:28.562Z,45.67
2019-05-20T11:45:28.613Z,46.33
2019-05-20T11:46:28.541Z,46.90
2019-05-20T11:47:28.659Z,45.77
2019-05-20T11:48:28.520Z,44.89
2019-05-20T11:49:29.384Z,47.29
2019-05-20T11:50:28.497Z,47.63
2019-05-20T11:51:28.554Z,47.50
2019-05-20T11:52:28.487Z,48.56
2019-05-20T11:53:28.568Z,51.07
2019-05-20T11:54:28.484Z,52.04
2019-05-20T11:55:28.509Z,53.06
2019-05-20T11:56:28.433Z,51.30
2019-05-20T11:57:28.540Z,49.55
2019-05-20T11:58:28.419Z,49.40
2019-05-20T11:59:29.440Z,48.47
2019-05-20T12:00:28.403Z,50.49
2019-05-20T12:01:28.418Z,45.72
2019-05-20T12:02:28.396Z,45.32
2019-05-20T12:03:28.431Z,46.35
2019-05-20T12:04:28.363Z,45.47
2019-05-20T12:05:28.448Z,45.56
2019-05-20T12:06:28.336Z,45.25
2019-05-20T12:07:28.394Z,46.48
2019-05-20T12:08:28.311Z,45.13
2019-05-20T12:09:28.372Z,46.47
2019-05-20T12:10:28.294Z,46.55
2019-05-20T12:11:28.390Z,48.03
2019-05-20T12:12:28.307Z,45.94
2019-05-20T12:13:28.299Z,47.29
2019-05-20T12:14:28.250Z,46.13
2019-05-20T12:15:28.308Z,48.83
2019-05-20T12:16:28.241Z,45.84
2019-05-20T12:17:28.320Z,46.25
2019-05-20T12:18:28.224Z,46.50
2019-05-20T12:19:28.241Z,44.98
2019-05-20T12:20:28.195Z,43.59
2019-05-20T12:21:28.244Z,45.30
2019-05-20T12:22:28.166Z,44.77
2019-05-20T12:23:28.195Z,46.53
2019-05-20T12:24:28.147Z,49.18
2019-05-20T12:25:28.169Z,47.60
2019-05-20T12:26:28.125Z,46.97
2019-05-20T12:27:28.185Z,45.84
2019-05-20T12:28:28.119Z,46.47
2019-05-20T12:29:28.196Z,46.99
2019-05-20T12:30:28.098Z,46.55
2019-05-20T12:31:28.111Z,46.60
2019-05-20T12:32:28.101Z,44.67
2019-05-20T12:33:28.068Z,44.87
2019-05-20T12:34:28.042Z,43.65
2019-05-20T12:35:37.052Z,44.06
2019-05-20T12:36:28.020Z,43.57
2019-05-20T12:37:28.101Z,43.52
2019-05-20T12:38:28.020Z,43.04
2019-05-20T12:39:36.563Z,43.57
2019-05-20T12:40:27.981Z,46.41
2019-05-20T12:41:29.028Z,43.35
2019-05-20T12:42:27.957Z,43.62
2019-05-20T12:43:28.023Z,41.47
2019-05-20T12:44:27.941Z,42.62
2019-05-20T12:45:28.003Z,43.41
2019-05-20T12:46:27.918Z,45.79
2019-05-20T12:47:28.015Z,44.98
2019-05-20T12:48:27.911Z,45.47
2019-05-20T12:49:27.985Z,46.55
2019-05-20T12:50:27.877Z,47.01
2019-05-20T12:51:27.940Z,47.69
2019-05-20T12:52:27.859Z,49.57
2019-05-20T12:53:27.876Z,50.78